Time,TemperatureF,DewpointF,PressureIn,WindDirection,WindDirectionDegrees,WindSpeedMPH,WindSpeedGustMPH,Humidity,HourlyPrecipIn,Conditions,Clouds,dailyrainin,SoftwareType,DateUTC
2013-04-03 00:00:00,37.9,18.5,30.28,NE,44,6.0,6.0,45,0.00,,,0.00,WeatherCatV1.02B3,2013-04-03 04:00:00,
2013-04-03 00:01:00,37.9,18.5,30.27,NE,44,6.0,6.0,45,0.00,,,0.00,WeatherCatV1.02B3,2013-04-03 04:01:00,
2013-04-03 00:06:00,37.8,18.9,30.27,NE,51,0.0,1.0,46,0.00,,,0.00,WeatherCatV1.02B3,2013-04-03 04:06:00,
2013-04-03 00:11:00,37.7,19.3,30.27,NNE,28,3.0,3.0,47,0.00,,,0.00,WeatherCatV1.02B3,2013-04-03 04:11:00,
2013-04-03 00:16:00,37.6,18.2,30.27,NE,37,5.0,7.0,45,0.00,,,0.00,WeatherCatV1.02B3,2013-04-03 04:16:00,
2013-04-03 00:21:00,37.6,18.7,30.27,ENE,62,5.0,5.0,46,0.00,,,0.00,WeatherCatV1.02B3,2013-04-03 04:21:00,
2013-04-03 00:26:00,37.5,18.6,30.27,North,0,2.0,6.0,46,0.00,,,0.00,WeatherCatV1.02B3,2013-04-03 04:26:00,
2013-04-03 00:31:00,37.4,19.0,30.28,NE,40,3.0,6.0,47,0.00,,,0.00,WeatherCatV1.02B3,2013-04-03 04:31:00,
2013-04-03 00:36:00,37.4,19.0,30.27,NNE,19,4.0,10.0,47,0.00,,,0.00,WeatherCatV1.02B3,2013-04-03 04:36:00,
2013-04-03 00:41:00,37.4,18.5,30.28,NNW,348,4.0,5.0,46,0.00,,,0.00,WeatherCatV1.02B3,2013-04-03 04:41:00,
2013-04-03 00:46:00,37.3,19.4,30.28,North,0,4.0,11.0,48,0.00,,,0.00,WeatherCatV1.02B3,2013-04-03 04:46:00,
2013-04-03 00:51:00,37.2,19.8,30.28,NNW,334,6.0,9.0,49,0.00,,,0.00,WeatherCatV1.02B3,2013-04-03 04:51:00,
2013-04-03 00:56:00,37.1,19.2,30.28,NW,316,5.0,6.0,48,0.00,,,0.00,WeatherCatV1.02B3,2013-04-03 04:56:00,
2013-04-03 01:01:00,37.0,19.6,30.28,NE,49,10.0,12.0,49,0.00,,,0.00,WeatherCatV1.02B3,2013-04-03 05:01:00,
2013-04-03 01:07:00,37.0,20.1,30.28,North,9,10.0,10.0,50,0.00,,,0.00,WeatherCatV1.02B3,2013-04-03 05:07:00,
2013-04-03 01:12:00,37.0,19.2,30.29,North,5,2.0,9.0,48,0.00,,,0.00,WeatherCatV1.02B3,2013-04-03 05:12:00,
2013-04-03 01:17:00,36.9,19.1,30.29,NNW,331,6.0,9.0,48,0.00,,,0.00,WeatherCatV1.02B3,2013-04-03 05:17:00,
2013-04-03 01:22:00,36.9,19.1,30.29,NNE,28,3.0,9.0,48,0.00,,,0.00,WeatherCatV1.02B3,2013-04-03 05:22:00,
2013-04-03 01:27:00,37.0,18.7,30.28,NNW,342,4.0,7.0,47,0.00,,,0.00,WeatherCatV1.02B3,2013-04-03 05:27:00,
2013-04-03 01:32:00,37.0,19.6,30.29,NNE,25,4.0,7.0,49,0.00,,,0.00,WeatherCatV1.02B3,2013-04-03 05:32:00,
2013-04-03 01:37:00,36.9,19.1,30.29,NE,49,4.0,10.0,48,0.00,,,0.00,WeatherCatV1.02B3,2013-04-03 05:37:00,
2013-04-03 01:42:00,36.9,19.5,30.29,North,9,8.0,8.0,49,0.00,,,0.00,WeatherCatV1.02B3,2013-04-03 05:42:00,
2013-04-03 01:47:00,36.8,19.0,30.29,North,5,2.0,7.0,48,0.00,,,0.00,WeatherCatV1.02B3,2013-04-03 05:47:00,
2013-04-03 01:52:00,36.7,20.3,30.29,North,0,6.0,14.0,51,0.00,,,0.00,WeatherCatV1.02B3,2013-04-03 05:52:00,
2013-04-03 01:57:00,36.6,19.7,30.29,NNW,336,5.0,9.0,50,0.00,,,0.00,WeatherCatV1.02B3,2013-04-03 05:57:00,
2013-04-03 02:02:00,36.6,19.3,30.29,NW,323,5.0,9.0,49,0.00,,,0.00,WeatherCatV1.02B3,2013-04-03 06:02:00,
2013-04-03 02:07:00,36.5,19.6,30.28,North,355,3.0,8.0,50,0.00,,,0.00,WeatherCatV1.02B3,2013-04-03 06:07:00,
2013-04-03 02:12:00,36.5,19.2,30.29,North,355,0.0,6.0,49,0.00,,,0.00,WeatherCatV1.02B3,2013-04-03 06:12:00,
2013-04-03 02:17:00,36.5,19.2,30.28,ENE,67,2.0,6.0,49,0.00,,,0.00,WeatherCatV1.02B3,2013-04-03 06:17:00,
2013-04-03 02:22:00,36.5,19.2,30.29,ENE,61,0.0,3.0,49,0.00,,,0.00,WeatherCatV1.02B3,2013-04-03 06:22:00,
2013-04-03 02:27:00,36.5,18.2,30.28,NE,55,0.0,3.0,47,0.00,,,0.00,WeatherCatV1.02B3,2013-04-03 06:27:00,
2013-04-03 02:32:00,36.5,18.2,30.29,NE,40,4.0,9.0,47,0.00,,,0.00,WeatherCatV1.02B3,2013-04-03 06:32:00,
2013-04-03 02:37:00,36.5,19.2,30.29,NE,44,1.0,3.0,49,0.00,,,0.00,WeatherCatV1.02B3,2013-04-03 06:37:00,
2013-04-03 02:42:00,36.5,20.1,30.29,NNE,25,2.0,3.0,51,0.00,,,0.00,WeatherCatV1.02B3,2013-04-03 06:42:00,
2013-04-03 02:47:00,36.3,19.5,30.28,NNE,13,3.0,6.0,50,0.00,,,0.00,WeatherCatV1.02B3,2013-04-03 06:47:00,
2013-04-03 02:52:00,36.2,19.8,30.28,NNE,25,1.0,5.0,51,0.00,,,0.00,WeatherCatV1.02B3,2013-04-03 06:52:00,
2013-04-03 02:57:00,36.0,19.6,30.28,NE,34,0.0,5.0,51,0.00,,,0.00,WeatherCatV1.02B3,2013-04-03 06:57:00,
2013-04-03 03:02:00,35.9,19.6,30.27,NNE,28,0.0,2.0,51,0.00,,,0.00,WeatherCatV1.02B3,2013-04-03 07:02:00,
2013-04-03 03:07:00,35.7,19.4,30.27,NNW,329,1.0,3.0,51,0.00,,,0.00,WeatherCatV1.02B3,2013-04-03 07:07:00,
2013-04-03 03:12:00,35.6,19.3,30.27,North,0,0.0,3.0,51,0.00,,,0.00,WeatherCatV1.02B3,2013-04-03 07:12:00,
2013-04-03 03:17:00,35.6,18.8,30.27,North,355,1.0,2.0,50,0.00,,,0.00,WeatherCatV1.02B3,2013-04-03 07:17:00,
2013-04-03 03:22:00,35.5,18.7,30.27,North,355,2.0,2.0,50,0.00,,,0.00,WeatherCatV1.02B3,2013-04-03 07:22:00,
2013-04-03 03:27:00,35.5,19.2,30.27,NNE,27,0.0,3.0,51,0.00,,,0.00,WeatherCatV1.02B3,2013-04-03 07:27:00,
2013-04-03 03:32:00,35.4,19.5,30.27,NNE,19,1.0,4.0,52,0.00,,,0.00,WeatherCatV1.02B3,2013-04-03 07:32:00,
2013-04-03 03:37:00,35.4,19.1,30.27,NNE,30,0.0,6.0,51,0.00,,,0.00,WeatherCatV1.02B3,2013-04-03 07:37:00,
2013-04-03 03:42:00,35.4,19.1,30.27,North,355,0.0,3.0,51,0.00,,,0.00,WeatherCatV1.02B3,2013-04-03 07:42:00,
2013-04-03 03:47:00,35.4,18.6,30.28,North,355,0.0,2.0,50,0.00,,,0.00,WeatherCatV1.02B3,2013-04-03 07:47:00,
2013-04-03 03:52:00,35.3,18.5,30.28,North,355,0.0,2.0,50,0.00,,,0.00,WeatherCatV1.02B3,2013-04-03 07:52:00,
2013-04-03 03:57:00,35.3,18.5,30.28,North,355,0.0,3.0,50,0.00,,,0.00,WeatherCatV1.02B3,2013-04-03 07:57:00,
2013-04-03 04:02:00,35.3,19.5,30.28,North,355,0.0,1.0,52,0.00,,,0.00,WeatherCatV1.02B3,2013-04-03 08:02:00,
2013-04-03 04:07:00,35.3,19.5,30.27,North,355,2.0,2.0,52,0.00,,,0.00,WeatherCatV1.02B3,2013-04-03 08:07:00,
2013-04-03 04:12:00,35.2,18.0,30.28,North,355,1.0,1.0,49,0.00,,,0.00,WeatherCatV1.02B3,2013-04-03 08:12:00,
2013-04-03 04:17:00,35.1,18.4,30.28,North,355,0.0,0.0,50,0.00,,,0.00,WeatherCatV1.02B3,2013-04-03 08:17:00,
2013-04-03 04:22:00,35.0,18.3,30.29,NNW,343,0.0,4.0,50,0.00,,,0.00,WeatherCatV1.02B3,2013-04-03 08:22:00,
2013-04-03 04:27:00,34.9,19.1,30.28,NNW,340,2.0,2.0,52,0.00,,,0.00,WeatherCatV1.02B3,2013-04-03 08:27:00,
2013-04-03 04:32:00,34.7,18.4,30.28,NNW,334,2.0,3.0,51,0.00,,,0.00,WeatherCatV1.02B3,2013-04-03 08:32:00,
2013-04-03 04:37:00,34.5,17.8,30.28,NW,314,0.0,1.0,50,0.00,,,0.00,WeatherCatV1.02B3,2013-04-03 08:37:00,
2013-04-03 04:42:00,34.4,17.7,30.28,NW,314,0.0,2.0,50,0.00,,,0.00,WeatherCatV1.02B3,2013-04-03 08:42:00,
2013-04-03 04:47:00,34.4,18.2,30.27,NW,314,0.0,1.0,51,0.00,,,0.00,WeatherCatV1.02B3,2013-04-03 08:47:00,
2013-04-03 04:52:00,34.4,18.2,30.28,NW,314,0.0,0.0,51,0.00,,,0.00,WeatherCatV1.02B3,2013-04-03 08:52:00,
2013-04-03 04:57:00,34.4,18.2,30.28,NW,314,0.0,3.0,51,0.00,,,0.00,WeatherCatV1.02B3,2013-04-03 08:57:00,
2013-04-03 05:02:00,34.3,18.1,30.28,NW,315,0.0,0.0,51,0.00,,,0.00,WeatherCatV1.02B3,2013-04-03 09:02:00,
2013-04-03 05:07:00,34.4,18.2,30.27,South,191,0.0,1.0,51,0.00,,,0.00,WeatherCatV1.02B3,2013-04-03 09:07:00,
2013-04-03 05:12:00,34.4,18.2,30.27,South,191,0.0,1.0,51,0.00,,,0.00,WeatherCatV1.02B3,2013-04-03 09:12:00,
2013-04-03 05:17:00,34.4,18.2,30.27,East,88,0.0,0.0,51,0.00,,,0.00,WeatherCatV1.02B3,2013-04-03 09:17:00,
2013-04-03 05:22:00,34.4,18.6,30.27,East,88,0.0,0.0,52,0.00,,,0.00,WeatherCatV1.02B3,2013-04-03 09:22:00,
2013-04-03 05:27:00,34.4,19.5,30.27,East,88,0.0,0.0,54,0.00,,,0.00,WeatherCatV1.02B3,2013-04-03 09:27:00,
2013-04-03 05:32:00,34.4,19.5,30.27,East,88,0.0,0.0,54,0.00,,,0.00,WeatherCatV1.02B3,2013-04-03 09:32:00,
2013-04-03 05:37:00,34.4,18.6,30.27,East,88,0.0,0.0,52,0.00,,,0.00,WeatherCatV1.02B3,2013-04-03 09:37:00,
2013-04-03 05:42:00,34.4,18.6,30.27,East,88,0.0,0.0,52,0.00,,,0.00,WeatherCatV1.02B3,2013-04-03 09:42:00,
2013-04-03 05:47:00,34.5,18.7,30.27,East,88,0.0,0.0,52,0.00,,,0.00,WeatherCatV1.02B3,2013-04-03 09:47:00,
2013-04-03 05:52:00,34.4,19.5,30.28,East,88,0.0,1.0,54,0.00,,,0.00,WeatherCatV1.02B3,2013-04-03 09:52:00,
2013-04-03 05:57:00,34.4,19.9,30.27,East,88,0.0,0.0,55,0.00,,,0.00,WeatherCatV1.02B3,2013-04-03 09:57:00,
2013-04-03 06:02:00,34.4,19.1,30.28,East,88,0.0,0.0,53,0.00,,,0.00,WeatherCatV1.02B3,2013-04-03 10:02:00,
2013-04-03 06:07:00,34.4,18.6,30.28,East,88,0.0,0.0,52,0.00,,,0.00,WeatherCatV1.02B3,2013-04-03 10:07:00,
2013-04-03 06:12:00,34.4,19.1,30.28,East,88,1.0,2.0,53,0.00,,,0.00,WeatherCatV1.02B3,2013-04-03 10:12:00,
2013-04-03 06:17:00,34.2,19.7,30.28,East,88,2.0,3.0,55,0.00,,,0.00,WeatherCatV1.02B3,2013-04-03 10:17:00,
2013-04-03 06:22:00,33.6,19.6,30.29,SE,146,3.0,3.0,56,0.00,,,0.00,WeatherCatV1.02B3,2013-04-03 10:22:00,
2013-04-03 06:27:00,33.1,19.1,30.29,SSE,147,2.0,3.0,56,0.00,,,0.00,WeatherCatV1.02B3,2013-04-03 10:27:00,
2013-04-03 06:32:00,32.5,19.0,30.31,SE,146,1.0,1.0,57,0.00,,,0.00,WeatherCatV1.02B3,2013-04-03 10:32:00,
2013-04-03 06:37:00,32.0,18.1,30.30,SSE,147,0.0,1.0,56,0.00,,,0.00,WeatherCatV1.02B3,2013-04-03 10:37:00,
2013-04-03 06:42:00,31.9,18.8,30.29,SSE,147,0.0,0.0,58,0.00,,,0.00,WeatherCatV1.02B3,2013-04-03 10:42:00,
2013-04-03 06:47:00,31.8,18.7,30.30,SSE,147,2.0,2.0,58,0.00,,,0.00,WeatherCatV1.02B3,2013-04-03 10:47:00,
2013-04-03 06:52:00,31.4,18.8,30.30,SSE,147,1.0,3.0,59,0.00,,,0.00,WeatherCatV1.02B3,2013-04-03 10:52:00,
2013-04-03 06:57:00,31.1,18.1,30.30,SSE,147,2.0,3.0,58,0.00,,,0.00,WeatherCatV1.02B3,2013-04-03 10:57:00,
2013-04-03 07:02:00,30.9,17.9,30.31,SE,146,1.0,1.0,58,0.00,,,0.00,WeatherCatV1.02B3,2013-04-03 11:02:00,
2013-04-03 07:07:00,30.8,17.4,30.31,SE,146,0.0,1.0,57,0.00,,,0.00,WeatherCatV1.02B3,2013-04-03 11:07:00,
2013-04-03 07:12:00,30.9,18.3,30.31,SSE,147,0.0,0.0,59,0.00,,,0.00,WeatherCatV1.02B3,2013-04-03 11:12:00,
2013-04-03 07:17:00,30.9,17.5,30.32,SE,146,0.0,0.0,57,0.00,,,0.00,WeatherCatV1.02B3,2013-04-03 11:17:00,
2013-04-03 07:22:00,31.0,18.0,30.32,SE,146,0.0,0.0,58,0.00,,,0.00,WeatherCatV1.02B3,2013-04-03 11:22:00,
2013-04-03 07:27:00,31.0,17.6,30.32,SE,146,0.0,0.0,57,0.00,,,0.00,WeatherCatV1.02B3,2013-04-03 11:27:00,
2013-04-03 07:32:00,30.8,17.8,30.32,SE,146,0.0,0.0,58,0.00,,,0.00,WeatherCatV1.02B3,2013-04-03 11:32:00,
2013-04-03 07:37:00,30.7,17.3,30.33,SE,146,0.0,0.0,57,0.00,,,0.00,WeatherCatV1.02B3,2013-04-03 11:37:00,
2013-04-03 07:42:00,30.6,17.2,30.33,SE,146,0.0,0.0,57,0.00,,,0.00,WeatherCatV1.02B3,2013-04-03 11:42:00,
2013-04-03 07:47:00,30.6,17.2,30.33,SE,145,0.0,0.0,57,0.00,,,0.00,WeatherCatV1.02B3,2013-04-03 11:47:00,
2013-04-03 07:52:00,30.7,16.9,30.34,SE,145,0.0,0.0,56,0.00,,,0.00,WeatherCatV1.02B3,2013-04-03 11:52:00,
2013-04-03 07:57:00,30.8,16.6,30.34,SE,146,0.0,1.0,55,0.00,,,0.00,WeatherCatV1.02B3,2013-04-03 11:57:00,
2013-04-03 08:02:00,30.9,17.9,30.34,SSE,148,2.0,3.0,58,0.00,,,0.00,WeatherCatV1.02B3,2013-04-03 12:02:00,
2013-04-03 08:07:00,31.0,17.6,30.35,SSE,157,1.0,3.0,57,0.00,,,0.00,WeatherCatV1.02B3,2013-04-03 12:07:00,
2013-04-03 08:12:00,31.2,17.8,30.35,SSE,163,1.0,2.0,57,0.00,,,0.00,WeatherCatV1.02B3,2013-04-03 12:12:00,
2013-04-03 08:17:00,31.3,18.3,30.35,SSE,163,2.0,2.0,58,0.00,,,0.00,WeatherCatV1.02B3,2013-04-03 12:17:00,
2013-04-03 08:22:00,31.2,18.2,30.35,SSE,163,0.0,2.0,58,0.00,,,0.00,WeatherCatV1.02B3,2013-04-03 12:22:00,
2013-04-03 08:27:00,31.0,19.1,30.35,SSE,163,0.0,0.0,61,0.00,,,0.00,WeatherCatV1.02B3,2013-04-03 12:27:00,
2013-04-03 08:32:00,31.0,18.4,30.35,SSE,163,0.0,0.0,59,0.00,,,0.00,WeatherCatV1.02B3,2013-04-03 12:32:00,
2013-04-03 08:37:00,30.9,18.7,30.35,SSE,163,0.0,0.0,60,0.00,,,0.00,WeatherCatV1.02B3,2013-04-03 12:37:00,
2013-04-03 08:42:00,30.9,17.9,30.36,SSE,163,0.0,0.0,58,0.00,,,0.00,WeatherCatV1.02B3,2013-04-03 12:42:00,
2013-04-03 08:47:00,31.2,18.6,30.36,SSE,163,0.0,0.0,59,0.00,,,0.00,WeatherCatV1.02B3,2013-04-03 12:47:00,
2013-04-03 08:52:00,31.3,19.4,30.36,SSE,163,0.0,0.0,61,0.00,,,0.00,WeatherCatV1.02B3,2013-04-03 12:52:00,
2013-04-03 08:57:00,31.5,19.2,30.36,South,173,0.0,1.0,60,0.00,,,0.00,WeatherCatV1.02B3,2013-04-03 12:57:00,
2013-04-03 09:02:00,31.6,20.1,30.36,South,178,0.0,0.0,62,0.00,,,0.00,WeatherCatV1.02B3,2013-04-03 13:02:00,
2013-04-03 09:07:00,31.7,20.2,30.36,South,178,0.0,0.0,62,0.00,,,0.00,WeatherCatV1.02B3,2013-04-03 13:07:00,
2013-04-03 09:12:00,31.7,20.2,30.36,South,178,0.0,0.0,62,0.00,,,0.00,WeatherCatV1.02B3,2013-04-03 13:12:00,
2013-04-03 09:17:00,31.9,19.6,30.36,South,178,0.0,0.0,60,0.00,,,0.00,WeatherCatV1.02B3,2013-04-03 13:17:00,
2013-04-03 09:22:00,32.0,20.1,30.36,South,178,0.0,1.0,61,0.00,,,0.00,WeatherCatV1.02B3,2013-04-03 13:22:00,
2013-04-03 09:27:00,32.3,20.0,30.36,South,178,0.0,0.0,60,0.00,,,0.00,WeatherCatV1.02B3,2013-04-03 13:27:00,
2013-04-03 09:32:00,32.6,20.3,30.36,South,178,0.0,0.0,60,0.00,,,0.00,WeatherCatV1.02B3,2013-04-03 13:32:00,
2013-04-03 09:37:00,33.0,20.7,30.36,South,171,0.0,1.0,60,0.00,,,0.00,WeatherCatV1.02B3,2013-04-03 13:37:00,
2013-04-03 09:42:00,33.5,20.7,30.36,South,178,0.0,2.0,59,0.00,,,0.00,WeatherCatV1.02B3,2013-04-03 13:42:00,
2013-04-03 09:47:00,34.1,20.5,30.35,South,181,0.0,2.0,57,0.00,,,0.00,WeatherCatV1.02B3,2013-04-03 13:47:00,
2013-04-03 09:52:00,34.8,21.1,30.35,NE,42,0.0,1.0,57,0.00,,,0.00,WeatherCatV1.02B3,2013-04-03 13:52:00,
2013-04-03 09:58:00,35.7,21.6,30.35,NE,42,0.0,3.0,56,0.00,,,0.00,WeatherCatV1.02B3,2013-04-03 13:58:00,
2013-04-03 10:03:00,37.0,21.5,30.35,NNE,30,1.0,3.0,53,0.00,,,0.00,WeatherCatV1.02B3,2013-04-03 14:03:00,
2013-04-03 10:08:00,38.2,20.3,30.34,NNE,31,0.0,0.0,48,0.00,,,0.00,WeatherCatV1.02B3,2013-04-03 14:08:00,
2013-04-03 10:13:00,39.2,21.7,30.35,NNE,30,0.0,0.0,49,0.00,,,0.00,WeatherCatV1.02B3,2013-04-03 14:13:00,
2013-04-03 10:18:00,39.8,22.2,30.35,NNE,30,1.0,1.0,49,0.00,,,0.00,WeatherCatV1.02B3,2013-04-03 14:18:00,
2013-04-03 10:23:00,40.0,22.4,30.35,NNE,31,0.0,1.0,49,0.00,,,0.00,WeatherCatV1.02B3,2013-04-03 14:23:00,
2013-04-03 10:28:00,40.4,21.8,30.35,NNE,30,0.0,2.0,47,0.00,,,0.00,WeatherCatV1.02B3,2013-04-03 14:28:00,
2013-04-03 10:33:00,40.7,20.0,30.35,North,0,0.0,4.0,43,0.00,,,0.00,WeatherCatV1.02B3,2013-04-03 14:33:00,
2013-04-03 10:38:00,40.9,19.6,30.35,North,0,0.0,1.0,42,0.00,,,0.00,WeatherCatV1.02B3,2013-04-03 14:38:00,
2013-04-03 10:43:00,41.5,21.2,30.35,North,0,0.0,1.0,44,0.00,,,0.00,WeatherCatV1.02B3,2013-04-03 14:43:00,
2013-04-03 10:48:00,42.4,21.0,30.35,North,0,1.0,3.0,42,0.00,,,0.00,WeatherCatV1.02B3,2013-04-03 14:48:00,
2013-04-03 10:53:00,43.5,21.9,30.35,NNW,344,0.0,4.0,42,0.00,,,0.00,WeatherCatV1.02B3,2013-04-03 14:53:00,
2013-04-03 10:58:00,44.4,21.6,30.35,NNE,17,0.0,4.0,40,0.00,,,0.00,WeatherCatV1.02B3,2013-04-03 14:58:00,
2013-04-03 11:03:00,45.0,22.1,30.34,NNW,329,0.0,3.0,40,0.00,,,0.00,WeatherCatV1.02B3,2013-04-03 15:03:00,
2013-04-03 11:08:00,45.1,21.0,30.35,NNW,329,0.0,0.0,38,0.00,,,0.00,WeatherCatV1.02B3,2013-04-03 15:08:00,
2013-04-03 11:13:00,45.2,21.1,30.35,NNW,335,0.0,0.0,38,0.00,,,0.00,WeatherCatV1.02B3,2013-04-03 15:13:00,
2013-04-03 11:18:00,45.6,22.1,30.35,NNE,13,0.0,2.0,39,0.00,,,0.00,WeatherCatV1.02B3,2013-04-03 15:18:00,
2013-04-03 11:23:00,46.2,22.6,30.35,North,10,0.0,1.0,39,0.00,,,0.00,WeatherCatV1.02B3,2013-04-03 15:23:00,
2013-04-03 11:28:00,46.9,23.3,30.35,NNE,25,2.0,5.0,39,0.00,,,0.00,WeatherCatV1.02B3,2013-04-03 15:28:00,
2013-04-03 11:33:00,47.3,23.6,30.35,NNE,25,0.0,1.0,39,0.00,,,0.00,WeatherCatV1.02B3,2013-04-03 15:33:00,
2013-04-03 11:38:00,47.8,24.1,30.35,North,355,0.0,4.0,39,0.00,,,0.00,WeatherCatV1.02B3,2013-04-03 15:38:00,
2013-04-03 11:43:00,47.9,23.5,30.34,North,355,0.0,0.0,38,0.00,,,0.00,WeatherCatV1.02B3,2013-04-03 15:43:00,
2013-04-03 11:48:00,48.5,23.4,30.35,NNE,33,2.0,3.0,37,0.00,,,0.00,WeatherCatV1.02B3,2013-04-03 15:48:00,
2013-04-03 11:53:00,48.7,23.0,30.35,North,355,1.0,2.0,36,0.00,,,0.00,WeatherCatV1.02B3,2013-04-03 15:53:00,
2013-04-03 11:58:00,49.0,23.9,30.35,North,355,5.0,5.0,37,0.00,,,0.00,WeatherCatV1.02B3,2013-04-03 15:58:00,
2013-04-03 12:03:00,49.5,23.0,30.35,North,0,0.0,5.0,35,0.00,,,0.00,WeatherCatV1.02B3,2013-04-03 16:03:00,
2013-04-03 12:08:00,49.8,23.9,30.35,NE,38,0.0,5.0,36,0.00,,,0.00,WeatherCatV1.02B3,2013-04-03 16:08:00,
2013-04-03 12:13:00,50.1,23.5,30.35,NNE,23,4.0,4.0,35,0.00,,,0.00,WeatherCatV1.02B3,2013-04-03 16:13:00,
2013-04-03 12:18:00,50.4,23.1,30.36,NNE,22,0.0,4.0,34,0.00,,,0.00,WeatherCatV1.02B3,2013-04-03 16:18:00,
2013-04-03 12:23:00,50.8,24.1,30.35,NE,45,0.0,3.0,35,0.00,,,0.00,WeatherCatV1.02B3,2013-04-03 16:23:00,
2013-04-03 12:28:00,51.2,23.8,30.36,NNW,328,0.0,3.0,34,0.00,,,0.00,WeatherCatV1.02B3,2013-04-03 16:28:00,
2013-04-03 12:33:00,51.4,23.3,30.35,NNE,24,2.0,4.0,33,0.00,,,0.00,WeatherCatV1.02B3,2013-04-03 16:33:00,
2013-04-03 12:38:00,52.0,25.2,30.35,NW,307,1.0,3.0,35,0.00,,,0.00,WeatherCatV1.02B3,2013-04-03 16:38:00,
2013-04-03 12:43:00,52.7,23.7,30.35,NW,306,0.0,2.0,32,0.00,,,0.00,WeatherCatV1.02B3,2013-04-03 16:43:00,
2013-04-03 12:48:00,52.5,24.2,30.34,North,0,0.0,4.0,33,0.00,,,0.00,WeatherCatV1.02B3,2013-04-03 16:48:00,
2013-04-03 12:53:00,51.7,23.5,30.34,NNE,19,0.0,1.0,33,0.00,,,0.00,WeatherCatV1.02B3,2013-04-03 16:53:00,
2013-04-03 12:58:00,51.2,23.1,30.34,North,9,4.0,4.0,33,0.00,,,0.00,WeatherCatV1.02B3,2013-04-03 16:58:00,
2013-04-03 13:03:00,51.3,23.2,30.34,SSE,149,3.0,3.0,33,0.00,,,0.00,WeatherCatV1.02B3,2013-04-03 17:03:00,
2013-04-03 13:08:00,51.0,22.9,30.34,NNW,340,4.0,7.0,33,0.00,,,0.00,WeatherCatV1.02B3,2013-04-03 17:08:00,
2013-04-03 13:13:00,50.8,24.1,30.34,North,5,1.0,3.0,35,0.00,,,0.00,WeatherCatV1.02B3,2013-04-03 17:13:00,
2013-04-03 13:18:00,51.0,24.3,30.34,NW,310,3.0,5.0,35,0.00,,,0.00,WeatherCatV1.02B3,2013-04-03 17:18:00,
2013-04-03 13:23:00,50.7,23.4,30.34,ESE,117,0.0,2.0,34,0.00,,,0.00,WeatherCatV1.02B3,2013-04-03 17:23:00,
2013-04-03 13:28:00,51.1,23.7,30.33,NNE,31,2.0,5.0,34,0.00,,,0.00,WeatherCatV1.02B3,2013-04-03 17:28:00,
2013-04-03 13:33:00,51.7,23.5,30.33,NW,311,4.0,4.0,33,0.00,,,0.00,WeatherCatV1.02B3,2013-04-03 17:33:00,
2013-04-03 13:38:00,51.7,22.8,30.33,NW,318,0.0,3.0,32,0.00,,,0.00,WeatherCatV1.02B3,2013-04-03 17:38:00,
2013-04-03 13:43:00,51.6,23.4,30.33,ENE,68,0.0,5.0,33,0.00,,,0.00,WeatherCatV1.02B3,2013-04-03 17:43:00,
2013-04-03 13:48:00,51.9,22.2,30.33,NNW,327,4.0,6.0,31,0.00,,,0.00,WeatherCatV1.02B3,2013-04-03 17:48:00,
2013-04-03 13:53:00,52.1,23.2,30.33,NW,307,0.0,5.0,32,0.00,,,0.00,WeatherCatV1.02B3,2013-04-03 17:53:00,
2013-04-03 13:58:00,52.4,21.9,30.32,North,5,0.0,3.0,30,0.00,,,0.00,WeatherCatV1.02B3,2013-04-03 17:58:00,
2013-04-03 14:03:00,52.9,22.3,30.32,NNW,329,3.0,10.0,30,0.00,,,0.00,WeatherCatV1.02B3,2013-04-03 18:03:00,
2013-04-03 14:08:00,53.0,19.9,30.32,West,279,2.0,3.0,27,0.00,,,0.00,WeatherCatV1.02B3,2013-04-03 18:08:00,
2013-04-03 14:13:00,53.2,19.2,30.33,NW,306,0.0,6.0,26,0.00,,,0.00,WeatherCatV1.02B3,2013-04-03 18:13:00,
2013-04-03 14:18:00,53.2,19.2,30.32,NW,323,7.0,7.0,26,0.00,,,0.00,WeatherCatV1.02B3,2013-04-03 18:18:00,
2013-04-03 14:23:00,53.3,18.4,30.32,North,5,9.0,10.0,25,0.00,,,0.00,WeatherCatV1.02B3,2013-04-03 18:23:00,
2013-04-03 14:28:00,53.3,17.4,30.32,WNW,295,1.0,2.0,24,0.00,,,0.00,WeatherCatV1.02B3,2013-04-03 18:28:00,
2013-04-03 14:33:00,53.4,19.4,30.32,NNW,339,3.0,6.0,26,0.00,,,0.00,WeatherCatV1.02B3,2013-04-03 18:33:00,
2013-04-03 14:38:00,53.6,17.7,30.32,WNW,293,1.0,5.0,24,0.00,,,0.00,WeatherCatV1.02B3,2013-04-03 18:38:00,
2013-04-03 14:43:00,53.9,18.0,30.33,NW,306,0.0,0.0,24,0.00,,,0.00,WeatherCatV1.02B3,2013-04-03 18:43:00,
2013-04-03 14:48:00,54.2,20.1,30.33,NW,320,0.0,4.0,26,0.00,,,0.00,WeatherCatV1.02B3,2013-04-03 18:48:00,
2013-04-03 14:53:00,53.9,18.0,30.33,WSW,248,2.0,3.0,24,0.00,,,0.00,WeatherCatV1.02B3,2013-04-03 18:53:00,
2013-04-03 14:58:00,53.8,19.7,30.33,SW,233,2.0,5.0,26,0.00,,,0.00,WeatherCatV1.02B3,2013-04-03 18:58:00,
2013-04-03 15:04:00,53.2,19.2,30.33,NNW,337,0.0,1.0,26,0.00,,,0.00,WeatherCatV1.02B3,2013-04-03 19:04:00,
2013-04-03 15:09:00,53.4,18.5,30.32,WSW,254,1.0,4.0,25,0.00,,,0.00,WeatherCatV1.02B3,2013-04-03 19:09:00,
2013-04-03 15:14:00,53.3,18.4,30.32,NNW,345,0.0,4.0,25,0.00,,,0.00,WeatherCatV1.02B3,2013-04-03 19:14:00,
2013-04-03 15:19:00,53.5,20.4,30.33,NW,325,2.0,7.0,27,0.00,,,0.00,WeatherCatV1.02B3,2013-04-03 19:19:00,
2013-04-03 15:24:00,53.7,19.6,30.33,NNW,340,0.0,2.0,26,0.00,,,0.00,WeatherCatV1.02B3,2013-04-03 19:24:00,
2013-04-03 15:29:00,53.5,19.5,30.32,North,9,0.0,5.0,26,0.00,,,0.00,WeatherCatV1.02B3,2013-04-03 19:29:00,
2013-04-03 15:34:00,53.2,20.1,30.32,North,355,2.0,5.0,27,0.00,,,0.00,WeatherCatV1.02B3,2013-04-03 19:34:00,
2013-04-03 15:39:00,53.3,21.0,30.33,North,349,0.0,4.0,28,0.00,,,0.00,WeatherCatV1.02B3,2013-04-03 19:39:00,
2013-04-03 15:44:00,53.5,20.4,30.32,NE,38,0.0,5.0,27,0.00,,,0.00,WeatherCatV1.02B3,2013-04-03 19:44:00,
2013-04-03 15:49:00,53.8,19.7,30.32,NNW,337,1.0,3.0,26,0.00,,,0.00,WeatherCatV1.02B3,2013-04-03 19:49:00,
2013-04-03 15:54:00,53.6,20.4,30.32,NNW,331,3.0,3.0,27,0.00,,,0.00,WeatherCatV1.02B3,2013-04-03 19:54:00,
2013-04-03 15:59:00,53.7,20.5,30.32,NNW,331,0.0,2.0,27,0.00,,,0.00,WeatherCatV1.02B3,2013-04-03 19:59:00,
2013-04-03 16:04:00,53.8,21.5,30.32,NNW,341,3.0,5.0,28,0.00,,,0.00,WeatherCatV1.02B3,2013-04-03 20:04:00,
2013-04-03 16:09:00,53.9,19.8,30.32,West,269,0.0,4.0,26,0.00,,,0.00,WeatherCatV1.02B3,2013-04-03 20:09:00,
2013-04-03 16:14:00,53.9,19.8,30.32,West,259,2.0,7.0,26,0.00,,,0.00,WeatherCatV1.02B3,2013-04-03 20:14:00,
2013-04-03 16:19:00,53.6,19.6,30.32,WSW,246,2.0,4.0,26,0.00,,,0.00,WeatherCatV1.02B3,2013-04-03 20:19:00,
2013-04-03 16:24:00,53.8,19.7,30.32,North,355,2.0,2.0,26,0.00,,,0.00,WeatherCatV1.02B3,2013-04-03 20:24:00,
2013-04-03 16:29:00,53.9,18.9,30.31,WNW,291,0.0,5.0,25,0.00,,,0.00,WeatherCatV1.02B3,2013-04-03 20:29:00,
2013-04-03 16:34:00,53.5,18.6,30.32,WNW,292,0.0,5.0,25,0.00,,,0.00,WeatherCatV1.02B3,2013-04-03 20:34:00,
2013-04-03 16:39:00,53.7,19.6,30.32,NW,319,0.0,4.0,26,0.00,,,0.00,WeatherCatV1.02B3,2013-04-03 20:39:00,
2013-04-03 16:44:00,53.7,19.6,30.32,WNW,302,1.0,5.0,26,0.00,,,0.00,WeatherCatV1.02B3,2013-04-03 20:44:00,
2013-04-03 16:49:00,53.6,19.6,30.32,NNW,344,1.0,1.0,26,0.00,,,0.00,WeatherCatV1.02B3,2013-04-03 20:49:00,
2013-04-03 16:54:00,53.4,20.3,30.32,NNW,345,0.0,0.0,27,0.00,,,0.00,WeatherCatV1.02B3,2013-04-03 20:54:00,
2013-04-03 16:59:00,53.2,20.1,30.32,NNW,334,4.0,5.0,27,0.00,,,0.00,WeatherCatV1.02B3,2013-04-03 20:59:00,
2013-04-03 17:04:00,53.2,18.3,30.32,North,355,4.0,4.0,25,0.00,,,0.00,WeatherCatV1.02B3,2013-04-03 21:04:00,
2013-04-03 17:09:00,53.1,19.1,30.31,NE,42,0.0,1.0,26,0.00,,,0.00,WeatherCatV1.02B3,2013-04-03 21:09:00,
2013-04-03 17:14:00,53.0,18.1,30.31,WNW,296,1.0,3.0,25,0.00,,,0.00,WeatherCatV1.02B3,2013-04-03 21:14:00,
2013-04-03 17:19:00,53.1,18.2,30.32,WNW,296,2.0,2.0,25,0.00,,,0.00,WeatherCatV1.02B3,2013-04-03 21:19:00,
2013-04-03 17:24:00,53.0,19.0,30.31,NNE,16,1.0,4.0,26,0.00,,,0.00,WeatherCatV1.02B3,2013-04-03 21:24:00,
2013-04-03 17:29:00,52.8,18.9,30.31,NW,311,0.0,5.0,26,0.00,,,0.00,WeatherCatV1.02B3,2013-04-03 21:29:00,
2013-04-03 17:34:00,52.6,18.7,30.31,NNW,344,3.0,3.0,26,0.00,,,0.00,WeatherCatV1.02B3,2013-04-03 21:34:00,
2013-04-03 17:39:00,52.3,20.2,30.31,WNW,286,1.0,2.0,28,0.00,,,0.00,WeatherCatV1.02B3,2013-04-03 21:39:00,
2013-04-03 17:44:00,52.3,21.0,30.31,NW,324,0.0,3.0,29,0.00,,,0.00,WeatherCatV1.02B3,2013-04-03 21:44:00,
2013-04-03 17:49:00,52.2,20.1,30.31,NNE,22,0.0,3.0,28,0.00,,,0.00,WeatherCatV1.02B3,2013-04-03 21:49:00,
2013-04-03 17:54:00,52.1,19.2,30.31,SSW,204,0.0,2.0,27,0.00,,,0.00,WeatherCatV1.02B3,2013-04-03 21:54:00,
2013-04-03 17:59:00,51.9,20.7,30.31,SSW,206,0.0,1.0,29,0.00,,,0.00,WeatherCatV1.02B3,2013-04-03 21:59:00,
2013-04-03 18:04:00,51.7,22.1,30.31,North,5,0.0,5.0,31,0.00,,,0.00,WeatherCatV1.02B3,2013-04-03 22:04:00,
2013-04-03 18:09:00,51.4,21.0,30.31,NNE,21,0.0,0.0,30,0.00,,,0.00,WeatherCatV1.02B3,2013-04-03 22:09:00,
2013-04-03 18:14:00,51.2,20.8,30.31,NNE,13,0.0,1.0,30,0.00,,,0.00,WeatherCatV1.02B3,2013-04-03 22:14:00,
2013-04-03 18:19:00,50.8,20.5,30.31,West,265,0.0,0.0,30,0.00,,,0.00,WeatherCatV1.02B3,2013-04-03 22:19:00,
2013-04-03 18:24:00,50.5,20.2,30.30,West,265,0.0,0.0,30,0.00,,,0.00,WeatherCatV1.02B3,2013-04-03 22:24:00,
2013-04-03 18:29:00,50.4,21.7,30.31,West,269,0.0,1.0,32,0.00,,,0.00,WeatherCatV1.02B3,2013-04-03 22:29:00,
2013-04-03 18:34:00,50.4,22.4,30.30,West,269,0.0,1.0,33,0.00,,,0.00,WeatherCatV1.02B3,2013-04-03 22:34:00,
2013-04-03 18:39:00,50.1,22.1,30.30,NNW,331,0.0,1.0,33,0.00,,,0.00,WeatherCatV1.02B3,2013-04-03 22:39:00,
2013-04-03 18:44:00,49.8,22.6,30.30,NNW,331,0.0,0.0,34,0.00,,,0.00,WeatherCatV1.02B3,2013-04-03 22:44:00,
2013-04-03 18:49:00,49.6,22.4,30.31,NNW,330,0.0,0.0,34,0.00,,,0.00,WeatherCatV1.02B3,2013-04-03 22:49:00,
2013-04-03 18:54:00,49.3,22.1,30.31,NNW,330,0.0,0.0,34,0.00,,,0.00,WeatherCatV1.02B3,2013-04-03 22:54:00,
2013-04-03 18:59:00,49.1,23.3,30.31,North,351,1.0,4.0,36,0.00,,,0.00,WeatherCatV1.02B3,2013-04-03 22:59:00,
2013-04-03 19:04:00,48.7,23.0,30.31,North,350,0.0,1.0,36,0.00,,,0.00,WeatherCatV1.02B3,2013-04-03 23:04:00,
2013-04-03 19:09:00,48.4,22.7,30.30,North,351,0.0,0.0,36,0.00,,,0.00,WeatherCatV1.02B3,2013-04-03 23:09:00,
2013-04-03 19:14:00,47.9,22.2,30.31,North,350,0.0,0.0,36,0.00,,,0.00,WeatherCatV1.02B3,2013-04-03 23:14:00,
2013-04-03 19:19:00,47.7,23.4,30.31,North,351,0.0,0.0,38,0.00,,,0.00,WeatherCatV1.02B3,2013-04-03 23:19:00,
2013-04-03 19:25:00,47.4,24.3,30.31,North,350,0.0,1.0,40,0.00,,,0.00,WeatherCatV1.02B3,2013-04-03 23:25:00,
2013-04-03 19:30:00,47.1,24.0,30.31,North,351,0.0,0.0,40,0.00,,,0.00,WeatherCatV1.02B3,2013-04-03 23:30:00,
2013-04-03 19:35:00,46.7,25.4,30.31,North,351,0.0,2.0,43,0.00,,,0.00,WeatherCatV1.02B3,2013-04-03 23:35:00,
2013-04-03 19:40:00,46.4,24.6,30.32,North,350,2.0,2.0,42,0.00,,,0.00,WeatherCatV1.02B3,2013-04-03 23:40:00,
2013-04-03 19:45:00,46.1,24.3,30.32,North,351,0.0,1.0,42,0.00,,,0.00,WeatherCatV1.02B3,2013-04-03 23:45:00,
2013-04-03 19:50:00,45.9,25.2,30.32,North,351,0.0,3.0,44,0.00,,,0.00,WeatherCatV1.02B3,2013-04-03 23:50:00,
2013-04-03 19:55:00,45.6,24.4,30.32,North,351,0.0,2.0,43,0.00,,,0.00,WeatherCatV1.02B3,2013-04-03 23:55:00,
2013-04-03 20:00:00,45.2,24.6,30.32,North,351,0.0,0.0,44,0.00,,,0.00,WeatherCatV1.02B3,2013-04-04 00:00:00,
2013-04-03 20:05:00,44.9,24.9,30.32,South,176,0.0,1.0,45,0.00,,,0.00,WeatherCatV1.02B3,2013-04-04 00:05:00,
2013-04-03 20:10:00,44.7,24.1,30.32,SE,140,3.0,3.0,44,0.00,,,0.00,WeatherCatV1.02B3,2013-04-04 00:10:00,
2013-04-03 20:15:00,44.6,24.0,30.32,SE,140,0.0,2.0,44,0.00,,,0.00,WeatherCatV1.02B3,2013-04-04 00:15:00,
2013-04-03 20:20:00,44.5,24.0,30.32,SE,140,0.0,1.0,44,0.00,,,0.00,WeatherCatV1.02B3,2013-04-04 00:20:00,
2013-04-03 20:25:00,44.5,23.4,30.32,SE,140,0.0,3.0,43,0.00,,,0.00,WeatherCatV1.02B3,2013-04-04 00:25:00,
2013-04-03 20:30:00,44.4,23.9,30.32,SE,140,0.0,2.0,44,0.00,,,0.00,WeatherCatV1.02B3,2013-04-04 00:30:00,
2013-04-03 20:35:00,44.3,23.8,30.32,SE,140,2.0,3.0,44,0.00,,,0.00,WeatherCatV1.02B3,2013-04-04 00:35:00,
2013-04-03 20:40:00,44.2,23.7,30.33,SE,140,0.0,3.0,44,0.00,,,0.00,WeatherCatV1.02B3,2013-04-04 00:40:00,
2013-04-03 20:45:00,44.1,23.6,30.33,SE,140,0.0,0.0,44,0.00,,,0.00,WeatherCatV1.02B3,2013-04-04 00:45:00,
2013-04-03 20:50:00,44.0,24.0,30.33,SE,141,1.0,3.0,45,0.00,,,0.00,WeatherCatV1.02B3,2013-04-04 00:50:00,
2013-04-03 20:55:00,43.8,24.4,30.33,SE,138,0.0,2.0,46,0.00,,,0.00,WeatherCatV1.02B3,2013-04-04 00:55:00,
2013-04-03 21:00:00,43.6,23.7,30.34,SE,138,1.0,3.0,45,0.00,,,0.00,WeatherCatV1.02B3,2013-04-04 01:00:00,
2013-04-03 21:05:00,43.4,24.5,30.35,SE,138,0.0,1.0,47,0.00,,,0.00,WeatherCatV1.02B3,2013-04-04 01:05:00,
2013-04-03 21:10:00,43.1,24.8,30.35,SE,138,0.0,1.0,48,0.00,,,0.00,WeatherCatV1.02B3,2013-04-04 01:10:00,
2013-04-03 21:15:00,42.8,24.5,30.35,SE,138,0.0,1.0,48,0.00,,,0.00,WeatherCatV1.02B3,2013-04-04 01:15:00,
2013-04-03 21:20:00,42.5,24.2,30.35,SSW,210,0.0,1.0,48,0.00,,,0.00,WeatherCatV1.02B3,2013-04-04 01:20:00,
2013-04-03 21:25:00,42.3,24.5,30.35,SE,137,1.0,2.0,49,0.00,,,0.00,WeatherCatV1.02B3,2013-04-04 01:25:00,
2013-04-03 21:30:00,42.2,23.9,30.35,SE,138,2.0,2.0,48,0.00,,,0.00,WeatherCatV1.02B3,2013-04-04 01:30:00,
2013-04-03 21:35:00,42.0,23.8,30.35,SE,138,0.0,1.0,48,0.00,,,0.00,WeatherCatV1.02B3,2013-04-04 01:35:00,
2013-04-03 21:40:00,41.9,24.1,30.35,SE,140,0.0,2.0,49,0.00,,,0.00,WeatherCatV1.02B3,2013-04-04 01:40:00,
2013-04-03 21:45:00,41.8,24.1,30.35,SSE,149,0.0,1.0,49,0.00,,,0.00,WeatherCatV1.02B3,2013-04-04 01:45:00,
2013-04-03 21:50:00,41.8,23.6,30.35,South,187,0.0,2.0,48,0.00,,,0.00,WeatherCatV1.02B3,2013-04-04 01:50:00,
2013-04-03 21:55:00,41.7,24.4,30.35,South,187,0.0,3.0,50,0.00,,,0.00,WeatherCatV1.02B3,2013-04-04 01:55:00,
2013-04-03 22:00:00,41.6,23.9,30.35,SW,219,0.0,1.0,49,0.00,,,0.00,WeatherCatV1.02B3,2013-04-04 02:00:00,
2013-04-03 22:05:00,41.5,24.7,30.35,SW,219,0.0,1.0,51,0.00,,,0.00,WeatherCatV1.02B3,2013-04-04 02:05:00,
2013-04-03 22:10:00,41.4,23.7,30.36,SSW,202,0.0,4.0,49,0.00,,,0.00,WeatherCatV1.02B3,2013-04-04 02:10:00,
2013-04-03 22:15:00,41.4,25.1,30.36,SSE,168,0.0,1.0,52,0.00,,,0.00,WeatherCatV1.02B3,2013-04-04 02:15:00,
2013-04-03 22:20:00,41.3,25.0,30.37,South,177,0.0,1.0,52,0.00,,,0.00,WeatherCatV1.02B3,2013-04-04 02:20:00,
2013-04-03 22:25:00,41.1,24.8,30.37,SW,227,2.0,4.0,52,0.00,,,0.00,WeatherCatV1.02B3,2013-04-04 02:25:00,
2013-04-03 22:30:00,41.1,23.9,30.37,SW,226,1.0,2.0,50,0.00,,,0.00,WeatherCatV1.02B3,2013-04-04 02:30:00,
2013-04-03 22:35:00,41.0,24.3,30.37,ESE,122,0.0,2.0,51,0.00,,,0.00,WeatherCatV1.02B3,2013-04-04 02:35:00,
2013-04-03 22:40:00,40.9,24.2,30.37,SSW,210,0.0,3.0,51,0.00,,,0.00,WeatherCatV1.02B3,2013-04-04 02:40:00,
2013-04-03 22:45:00,40.9,24.2,30.38,SSW,202,0.0,0.0,51,0.00,,,0.00,WeatherCatV1.02B3,2013-04-04 02:45:00,
2013-04-03 22:50:00,40.9,24.6,30.38,South,173,0.0,0.0,52,0.00,,,0.00,WeatherCatV1.02B3,2013-04-04 02:50:00,
2013-04-03 22:55:00,40.8,24.1,30.38,SE,132,0.0,0.0,51,0.00,,,0.00,WeatherCatV1.02B3,2013-04-04 02:55:00,
2013-04-03 23:00:00,40.6,24.4,30.38,SE,132,0.0,1.0,52,0.00,,,0.00,WeatherCatV1.02B3,2013-04-04 03:00:00,
2013-04-03 23:05:00,40.5,24.7,30.38,SE,132,0.0,1.0,53,0.00,,,0.00,WeatherCatV1.02B3,2013-04-04 03:05:00,
2013-04-03 23:10:00,40.4,24.6,30.38,South,184,0.0,0.0,53,0.00,,,0.00,WeatherCatV1.02B3,2013-04-04 03:10:00,
2013-04-03 23:16:00,40.3,23.6,30.38,South,184,0.0,0.0,51,0.00,,,0.00,WeatherCatV1.02B3,2013-04-04 03:16:00,
2013-04-03 23:21:00,40.3,23.6,30.38,South,184,1.0,1.0,51,0.00,,,0.00,WeatherCatV1.02B3,2013-04-04 03:21:00,
2013-04-03 23:26:00,40.3,23.6,30.38,WNW,290,0.0,1.0,51,0.00,,,0.00,WeatherCatV1.02B3,2013-04-04 03:26:00,
2013-04-03 23:31:00,40.3,23.6,30.37,WNW,290,1.0,2.0,51,0.00,,,0.00,WeatherCatV1.02B3,2013-04-04 03:31:00,
2013-04-03 23:36:00,40.2,24.0,30.37,WNW,290,3.0,3.0,52,0.00,,,0.00,WeatherCatV1.02B3,2013-04-04 03:36:00,
2013-04-03 23:41:00,40.1,23.9,30.37,WNW,290,0.0,0.0,52,0.00,,,0.00,WeatherCatV1.02B3,2013-04-04 03:41:00,
2013-04-03 23:46:00,40.0,22.9,30.37,West,280,0.0,0.0,50,0.00,,,0.00,WeatherCatV1.02B3,2013-04-04 03:46:00,
2013-04-03 23:51:00,40.0,23.8,30.37,WNW,294,0.0,0.0,52,0.00,,,0.00,WeatherCatV1.02B3,2013-04-04 03:51:00,
2013-04-03 23:56:00,39.8,24.5,30.37,WNW,294,0.0,1.0,54,0.00,,,0.00,WeatherCatV1.02B3,2013-04-04 03:56:00,